• Join FlightAware (Why Join?)
  • Login
  • US Flag 
06:31PM EST


 

Airport Tracker/Info


-or-


 

Live Flight TrackerFlight Track Log ✈ CES2126 ✈ 24-Apr-2013 ✈ ZPPP / KMG - ZLXY / XIY

Flight Track Log - Related Links

Times and Time Zones

All times are in EDT time to prevent confusion due to time zone crossing. See the CES2126 flight status page for this flight to view local times or setup timezone preferences in your user account.

Time Position Orientation Groundspeed Altitude Reporting Facility
EDT Latitude Longitude Course Direction KTS MPH feet Rate Location/Type
12:19PM 27.5575 104.3439 27° Northeast  Level Estimated
12:20PM 27.6554 104.4018 28° Northeast  Level Estimated
12:21PM 27.7533 104.4598 28° Northeast  Level Estimated
12:22PM 27.8512 104.5179 28° Northeast  Level Estimated
12:23PM 27.9491 104.5760 28° Northeast  Level Estimated
12:24PM 28.0469 104.6343 28° Northeast  Level Estimated
12:25PM 28.1447 104.6927 28° Northeast  Level Estimated
12:26PM 28.2425 104.7512 28° Northeast  Level Estimated
12:27PM 28.3402 104.8098 28° Northeast  Level Estimated
12:28PM 28.4379 104.8686 28° Northeast  Level Estimated
12:29PM 28.5356 104.9274 28° Northeast  Level Estimated
12:30PM 28.6333 104.9863 28° Northeast  Level Estimated
12:31PM 28.7310 105.0454 28° Northeast  Level Estimated
12:32PM 28.8286 105.1045 28° Northeast  Level Estimated
12:33PM 28.9262 105.1638 28° Northeast  Level Estimated
12:34PM 29.0238 105.2232 28° Northeast  Level Estimated
12:35PM 29.1213 105.2827 28° Northeast  Level Estimated
12:36PM 29.2188 105.3423 28° Northeast  Level Estimated
12:37PM 29.3163 105.4020 28° Northeast  Level Estimated
12:38PM 29.4138 105.4618 28° Northeast  Level Estimated
12:39PM 29.5112 105.5218 28° Northeast  Level Estimated
12:40PM 29.6087 105.5818 28° Northeast  Level Estimated
12:41PM 29.7061 105.6420 28° Northeast  Level Estimated
12:42PM 29.8034 105.7023 28° Northeast  Level Estimated
12:43PM 29.9007 105.7627 28° Northeast  Level Estimated
12:44PM 29.9981 105.8233 28° Northeast  Level Estimated
12:45PM 30.0953 105.8839 28° Northeast  Level Estimated
12:46PM 30.1926 105.9447 28° Northeast  Level Estimated
12:47PM 30.2898 106.0056 28° Northeast  Level Estimated
12:48PM 30.3870 106.0666 28° Northeast  Level Estimated
12:49PM 30.4842 106.1277 28° Northeast  Level Estimated
12:50PM 30.5813 106.1890 28° Northeast  Level Estimated
12:51PM 30.6784 106.2503 29° Northeast  Level Estimated
12:52PM 30.7755 106.3118 29° Northeast  Level Estimated
12:53PM 30.8725 106.3735 29° Northeast  Level Estimated
12:54PM 30.9696 106.4352 29° Northeast  Level Estimated
12:55PM 31.0666 106.4971 29° Northeast  Level Estimated
12:56PM 31.1635 106.5591 29° Northeast  Level Estimated
12:57PM 31.2605 106.6212 29° Northeast  Level Estimated
12:58PM 31.3573 106.6835 29° Northeast  Level Estimated
12:59PM 31.4542 106.7459 29° Northeast  Level Estimated
01:00PM 31.5511 106.8084 29° Northeast  Level Estimated
01:01PM 31.6479 106.8710 29° Northeast  Level Estimated
01:02PM 31.7446 106.9338 29° Northeast  Level Estimated
01:03PM 31.8414 106.9967 29° Northeast  Level Estimated
01:04PM 31.9381 107.0597 29° Northeast  Level Estimated
01:05PM 32.0348 107.1229 29° Northeast  Level Estimated
01:06PM 32.1315 107.1862 29° Northeast  Level Estimated
01:07PM 32.2281 107.2496 29° Northeast  Level Estimated
01:08PM 32.3247 107.3132 29° Northeast  Level Estimated
01:09PM 32.4212 107.3769 29° Northeast  Level Estimated
01:10PM 32.5178 107.4408 29° Northeast  Level Estimated
01:11PM 32.6143 107.5048 29° Northeast  Level Estimated
01:12PM 32.7107 107.5689 29° Northeast  Level Estimated
01:13PM 32.8072 107.6331 29° Northeast  Level Estimated
01:14PM 32.9036 107.6975 29° Northeast  Level Estimated
01:15PM 32.9999 107.7621 29° Northeast  Level Estimated
01:16PM 33.0963 107.8268 29° Northeast  Level Estimated
01:17PM 33.1926 107.8916 29° Northeast  Level Estimated
01:18PM 33.2888 107.9565 29° Northeast  Level Estimated
01:19PM 33.3851 108.0217 29° Northeast  Level Estimated
01:20PM 33.4813 108.0869 29° Northeast  Level Estimated
01:21PM 33.5774 108.1523 30° Northeast  Level Estimated
01:22PM 33.6735 108.2178 30° Northeast  Level Estimated
01:23PM 33.7696 108.2835 30° Northeast  Level Estimated
01:24PM 33.8657 108.3494 30° Northeast  Level Estimated
01:25PM 33.9617 108.4154 30° Northeast  Level Estimated
01:26PM 34.0577 108.4815 30° Northeast  Level Estimated
01:27PM 34.1537 108.5478 30° Northeast  Level Estimated
01:28PM 34.2560 108.6187 30° Northeast  Level Estimated
01:29PM 34.3582 108.6897 30° Northeast  Level Estimated
01:30PM 34.4471 108.7516 30° Northeast  Level Estimated
01:31PM 34.4471 108.7516 121° Southeast  Level Estimated
01:32PM 34.4471 108.7516 121° Southeast  Level Estimated
01:33PM 34.4471 108.7516 121° Southeast  Level Estimated
01:34PM 34.4471 108.7516 121° Southeast  Level Estimated
01:35PM 34.4471 108.7516 121° Southeast  Level Estimated
01:36PM 34.4471 108.7516 121° Southeast  Level Estimated
01:37PM 34.4471 108.7516 121° Southeast  Level Estimated
01:38PM 34.4471 108.7516 121° Southeast  Level Estimated